sensor_id;sensor_type;location;lat;lon;timestamp;temperature;humidity
2441;DHT22;1231;53.988;9.470;2022-08-03T00:00:22;19.60;82.40
2441;DHT22;1231;53.988;9.470;2022-08-03T00:02:53;19.60;82.50
2441;DHT22;1231;53.988;9.470;2022-08-03T00:05:24;19.60;82.50
2441;DHT22;1231;53.988;9.470;2022-08-03T00:07:54;19.50;82.50
2441;DHT22;1231;53.988;9.470;2022-08-03T00:10:25;19.50;82.60
2441;DHT22;1231;53.988;9.470;2022-08-03T00:12:56;19.40;82.60
2441;DHT22;1231;53.988;9.470;2022-08-03T00:15:27;19.40;82.70
2441;DHT22;1231;53.988;9.470;2022-08-03T00:17:57;19.30;82.80
2441;DHT22;1231;53.988;9.470;2022-08-03T00:20:28;19.30;83.00
2441;DHT22;1231;53.988;9.470;2022-08-03T00:22:59;19.30;83.20
2441;DHT22;1231;53.988;9.470;2022-08-03T00:25:29;19.30;83.40
2441;DHT22;1231;53.988;9.470;2022-08-03T00:28:01;19.30;83.40
2441;DHT22;1231;53.988;9.470;2022-08-03T00:30:33;19.30;83.30
2441;DHT22;1231;53.988;9.470;2022-08-03T00:33:03;19.30;83.30
2441;DHT22;1231;53.988;9.470;2022-08-03T00:35:34;19.30;83.20
2441;DHT22;1231;53.988;9.470;2022-08-03T00:38:05;19.20;83.30
2441;DHT22;1231;53.988;9.470;2022-08-03T00:40:35;19.20;83.50
2441;DHT22;1231;53.988;9.470;2022-08-03T00:43:07;19.20;83.60
2441;DHT22;1231;53.988;9.470;2022-08-03T00:45:40;19.10;83.60
2441;DHT22;1231;53.988;9.470;2022-08-03T00:48:11;19.20;83.60
2441;DHT22;1231;53.988;9.470;2022-08-03T00:50:42;19.10;83.60
2441;DHT22;1231;53.988;9.470;2022-08-03T00:53:13;19.10;83.60
2441;DHT22;1231;53.988;9.470;2022-08-03T00:55:44;19.10;83.50
2441;DHT22;1231;53.988;9.470;2022-08-03T00:58:15;19.10;83.40
2441;DHT22;1231;53.988;9.470;2022-08-03T01:00:46;19.10;83.50
2441;DHT22;1231;53.988;9.470;2022-08-03T01:03:16;19.00;83.60
2441;DHT22;1231;53.988;9.470;2022-08-03T01:08:56;19.00;83.70
2441;DHT22;1231;53.988;9.470;2022-08-03T01:14:33;19.00;83.80
2441;DHT22;1231;53.988;9.470;2022-08-03T01:17:23;19.00;83.70
2441;DHT22;1231;53.988;9.470;2022-08-03T01:25:27;19.00;84.00
2441;DHT22;1231;53.988;9.470;2022-08-03T01:29:01;19.10;84.10
2441;DHT22;1231;53.988;9.470;2022-08-03T01:35:06;19.00;84.10
2441;DHT22;1231;53.988;9.470;2022-08-03T01:37:42;19.10;84.30
2441;DHT22;1231;53.988;9.470;2022-08-03T01:40:15;19.10;84.30
2441;DHT22;1231;53.988;9.470;2022-08-03T01:42:47;19.10;84.20
2441;DHT22;1231;53.988;9.470;2022-08-03T01:45:19;19.10;84.20
2441;DHT22;1231;53.988;9.470;2022-08-03T01:47:52;19.10;84.10
2441;DHT22;1231;53.988;9.470;2022-08-03T01:50:26;19.10;84.20
2441;DHT22;1231;53.988;9.470;2022-08-03T01:52:58;19.00;84.20
2441;DHT22;1231;53.988;9.470;2022-08-03T01:55:30;19.00;84.10
2441;DHT22;1231;53.988;9.470;2022-08-03T01:58:03;19.00;84.10
2441;DHT22;1231;53.988;9.470;2022-08-03T02:00:35;19.00;84.00
2441;DHT22;1231;53.988;9.470;2022-08-03T02:03:07;18.90;84.10
2441;DHT22;1231;53.988;9.470;2022-08-03T02:05:39;18.90;84.10
2441;DHT22;1231;53.988;9.470;2022-08-03T02:08:12;18.90;84.10
2441;DHT22;1231;53.988;9.470;2022-08-03T02:10:43;18.80;84.10
2441;DHT22;1231;53.988;9.470;2022-08-03T02:13:18;18.80;84.10
2441;DHT22;1231;53.988;9.470;2022-08-03T02:15:50;18.80;84.10
2441;DHT22;1231;53.988;9.470;2022-08-03T02:18:23;18.80;84.10
2441;DHT22;1231;53.988;9.470;2022-08-03T02:20:55;18.70;84.30
2441;DHT22;1231;53.988;9.470;2022-08-03T02:23:26;18.70;84.30
2441;DHT22;1231;53.988;9.470;2022-08-03T02:26:00;18.70;84.30
2441;DHT22;1231;53.988;9.470;2022-08-03T02:28:35;18.60;84.30
2441;DHT22;1231;53.988;9.470;2022-08-03T02:31:12;18.60;84.40
2441;DHT22;1231;53.988;9.470;2022-08-03T02:33:51;18.60;84.40
2441;DHT22;1231;53.988;9.470;2022-08-03T02:36:30;18.50;84.40
2441;DHT22;1231;53.988;9.470;2022-08-03T02:39:04;18.50;84.50
2441;DHT22;1231;53.988;9.470;2022-08-03T02:41:42;18.50;84.60
2441;DHT22;1231;53.988;9.470;2022-08-03T02:44:17;18.50;84.60
2441;DHT22;1231;53.988;9.470;2022-08-03T02:46:53;18.50;84.60
2441;DHT22;1231;53.988;9.470;2022-08-03T02:49:25;18.50;84.70
2441;DHT22;1231;53.988;9.470;2022-08-03T02:51:58;18.50;84.80
2441;DHT22;1231;53.988;9.470;2022-08-03T02:54:29;18.50;84.80
2441;DHT22;1231;53.988;9.470;2022-08-03T02:57:01;18.50;84.80
2441;DHT22;1231;53.988;9.470;2022-08-03T02:59:33;18.50;84.80
2441;DHT22;1231;53.988;9.470;2022-08-03T03:02:05;18.60;84.80
2441;DHT22;1231;53.988;9.470;2022-08-03T03:04:36;18.60;84.90
2441;DHT22;1231;53.988;9.470;2022-08-03T03:07:07;18.60;84.90
2441;DHT22;1231;53.988;9.470;2022-08-03T03:09:38;18.70;84.90
2441;DHT22;1231;53.988;9.470;2022-08-03T03:12:10;18.70;84.90
2441;DHT22;1231;53.988;9.470;2022-08-03T03:14:41;18.70;84.80
2441;DHT22;1231;53.988;9.470;2022-08-03T03:17:13;18.80;84.80
2441;DHT22;1231;53.988;9.470;2022-08-03T03:19:46;18.80;84.80
2441;DHT22;1231;53.988;9.470;2022-08-03T03:22:19;18.80;84.80
2441;DHT22;1231;53.988;9.470;2022-08-03T03:24:51;18.90;84.70
2441;DHT22;1231;53.988;9.470;2022-08-03T03:27:23;18.90;84.80
2441;DHT22;1231;53.988;9.470;2022-08-03T03:29:53;18.90;84.70
2441;DHT22;1231;53.988;9.470;2022-08-03T03:32:26;18.90;84.80
2441;DHT22;1231;53.988;9.470;2022-08-03T03:34:58;19.00;84.70
2441;DHT22;1231;53.988;9.470;2022-08-03T03:37:29;19.00;84.60
2441;DHT22;1231;53.988;9.470;2022-08-03T03:39:59;19.00;84.50
2441;DHT22;1231;53.988;9.470;2022-08-03T03:42:31;19.00;84.40
2441;DHT22;1231;53.988;9.470;2022-08-03T03:45:08;19.00;84.40
2441;DHT22;1231;53.988;9.470;2022-08-03T03:47:39;19.00;84.30
2441;DHT22;1231;53.988;9.470;2022-08-03T03:50:10;19.10;84.30
2441;DHT22;1231;53.988;9.470;2022-08-03T03:52:40;19.10;84.20
2441;DHT22;1231;53.988;9.470;2022-08-03T03:55:15;19.10;84.20
2441;DHT22;1231;53.988;9.470;2022-08-03T03:57:46;19.20;84.20
2441;DHT22;1231;53.988;9.470;2022-08-03T04:00:17;19.20;84.00
2441;DHT22;1231;53.988;9.470;2022-08-03T04:02:48;19.30;84.00
2441;DHT22;1231;53.988;9.470;2022-08-03T04:05:18;19.30;83.90
2441;DHT22;1231;53.988;9.470;2022-08-03T04:08:11;19.30;83.80
2441;DHT22;1231;53.988;9.470;2022-08-03T04:11:13;19.30;83.80
2441;DHT22;1231;53.988;9.470;2022-08-03T04:13:53;19.30;83.80
2441;DHT22;1231;53.988;9.470;2022-08-03T04:16:27;19.30;83.70
2441;DHT22;1231;53.988;9.470;2022-08-03T04:19:04;19.40;83.70
2441;DHT22;1231;53.988;9.470;2022-08-03T04:21:40;19.40;83.60
2441;DHT22;1231;53.988;9.470;2022-08-03T04:24:13;19.40;83.50
2441;DHT22;1231;53.988;9.470;2022-08-03T04:26:45;19.50;83.40
2441;DHT22;1231;53.988;9.470;2022-08-03T04:29:17;19.50;83.40
2441;DHT22;1231;53.988;9.470;2022-08-03T04:31:49;19.50;83.30
2441;DHT22;1231;53.988;9.470;2022-08-03T04:34:21;19.60;83.40
2441;DHT22;1231;53.988;9.470;2022-08-03T04:36:56;19.70;83.30
2441;DHT22;1231;53.988;9.470;2022-08-03T04:39:30;19.80;83.10
2441;DHT22;1231;53.988;9.470;2022-08-03T04:42:03;19.80;82.90
2441;DHT22;1231;53.988;9.470;2022-08-03T04:44:37;19.80;82.90
2441;DHT22;1231;53.988;9.470;2022-08-03T04:47:08;19.80;82.90
2441;DHT22;1231;53.988;9.470;2022-08-03T04:49:39;19.80;82.80
2441;DHT22;1231;53.988;9.470;2022-08-03T04:52:10;19.80;82.80
2441;DHT22;1231;53.988;9.470;2022-08-03T04:54:42;19.80;82.80
2441;DHT22;1231;53.988;9.470;2022-08-03T04:57:13;19.80;82.70
2441;DHT22;1231;53.988;9.470;2022-08-03T04:59:43;19.80;82.70
2441;DHT22;1231;53.988;9.470;2022-08-03T05:02:14;19.80;82.70
2441;DHT22;1231;53.988;9.470;2022-08-03T05:04:45;19.90;82.60
2441;DHT22;1231;53.988;9.470;2022-08-03T05:07:17;19.90;82.50
2441;DHT22;1231;53.988;9.470;2022-08-03T05:09:47;20.00;82.40
2441;DHT22;1231;53.988;9.470;2022-08-03T05:12:18;20.00;82.40
2441;DHT22;1231;53.988;9.470;2022-08-03T05:14:48;20.00;82.40
2441;DHT22;1231;53.988;9.470;2022-08-03T05:17:19;20.00;82.30
2441;DHT22;1231;53.988;9.470;2022-08-03T05:19:50;20.10;82.30
2441;DHT22;1231;53.988;9.470;2022-08-03T05:22:21;20.10;82.30
2441;DHT22;1231;53.988;9.470;2022-08-03T05:24:52;20.20;82.30
2441;DHT22;1231;53.988;9.470;2022-08-03T05:27:22;20.20;82.30
2441;DHT22;1231;53.988;9.470;2022-08-03T05:29:53;20.20;82.30
2441;DHT22;1231;53.988;9.470;2022-08-03T05:32:23;20.30;82.30
2441;DHT22;1231;53.988;9.470;2022-08-03T05:34:54;20.40;82.20
2441;DHT22;1231;53.988;9.470;2022-08-03T05:37:25;20.50;82.20
2441;DHT22;1231;53.988;9.470;2022-08-03T05:39:55;20.50;82.20
2441;DHT22;1231;53.988;9.470;2022-08-03T05:42:26;20.60;82.30
2441;DHT22;1231;53.988;9.470;2022-08-03T05:44:56;20.60;82.30
2441;DHT22;1231;53.988;9.470;2022-08-03T05:47:27;20.70;82.30
2441;DHT22;1231;53.988;9.470;2022-08-03T05:49:58;20.80;82.20
2441;DHT22;1231;53.988;9.470;2022-08-03T05:52:28;20.90;82.20
2441;DHT22;1231;53.988;9.470;2022-08-03T05:54:59;20.90;82.20
2441;DHT22;1231;53.988;9.470;2022-08-03T05:57:29;21.00;82.20
2441;DHT22;1231;53.988;9.470;2022-08-03T06:00:04;21.10;82.20
2441;DHT22;1231;53.988;9.470;2022-08-03T06:02:35;21.20;82.00
2441;DHT22;1231;53.988;9.470;2022-08-03T06:05:06;21.20;81.90
2441;DHT22;1231;53.988;9.470;2022-08-03T06:07:37;21.30;81.70
2441;DHT22;1231;53.988;9.470;2022-08-03T06:10:08;21.40;81.60
2441;DHT22;1231;53.988;9.470;2022-08-03T06:12:39;21.50;81.40
2441;DHT22;1231;53.988;9.470;2022-08-03T06:15:10;21.60;81.10
2441;DHT22;1231;53.988;9.470;2022-08-03T06:17:48;21.70;81.10
2441;DHT22;1231;53.988;9.470;2022-08-03T06:20:19;21.80;81.00
2441;DHT22;1231;53.988;9.470;2022-08-03T06:22:50;21.90;80.80
2441;DHT22;1231;53.988;9.470;2022-08-03T06:25:21;22.00;80.70
2441;DHT22;1231;53.988;9.470;2022-08-03T06:27:52;22.10;80.60
2441;DHT22;1231;53.988;9.470;2022-08-03T06:30:22;22.10;80.50
2441;DHT22;1231;53.988;9.470;2022-08-03T06:32:53;22.20;80.50
2441;DHT22;1231;53.988;9.470;2022-08-03T06:35:24;22.30;80.20
2441;DHT22;1231;53.988;9.470;2022-08-03T06:37:57;22.70;80.60
2441;DHT22;1231;53.988;9.470;2022-08-03T06:40:28;23.70;79.90
2441;DHT22;1231;53.988;9.470;2022-08-03T06:43:01;24.80;77.30
2441;DHT22;1231;53.988;9.470;2022-08-03T06:45:32;26.00;74.10
2441;DHT22;1231;53.988;9.470;2022-08-03T06:48:07;27.10;70.80
2441;DHT22;1231;53.988;9.470;2022-08-03T06:50:40;28.20;67.10
2441;DHT22;1231;53.988;9.470;2022-08-03T06:53:11;29.20;63.80
2441;DHT22;1231;53.988;9.470;2022-08-03T06:55:41;30.10;60.70
2441;DHT22;1231;53.988;9.470;2022-08-03T06:58:12;30.90;58.20
2441;DHT22;1231;53.988;9.470;2022-08-03T07:00:42;31.60;56.50
2441;DHT22;1231;53.988;9.470;2022-08-03T07:03:13;32.20;54.80
2441;DHT22;1231;53.988;9.470;2022-08-03T07:05:44;32.70;53.70
2441;DHT22;1231;53.988;9.470;2022-08-03T07:08:18;33.00;51.90
2441;DHT22;1231;53.988;9.470;2022-08-03T07:10:49;33.20;50.90
2441;DHT22;1231;53.988;9.470;2022-08-03T07:13:19;33.30;50.30
2441;DHT22;1231;53.988;9.470;2022-08-03T07:15:50;33.20;50.10
2441;DHT22;1231;53.988;9.470;2022-08-03T07:18:20;33.00;50.40
2441;DHT22;1231;53.988;9.470;2022-08-03T07:20:51;32.60;50.90
2441;DHT22;1231;53.988;9.470;2022-08-03T07:23:22;32.20;51.40
2441;DHT22;1231;53.988;9.470;2022-08-03T07:25:52;31.80;52.20
2441;DHT22;1231;53.988;9.470;2022-08-03T07:28:23;31.30;52.60
2441;DHT22;1231;53.988;9.470;2022-08-03T07:30:53;30.90;53.00
2441;DHT22;1231;53.988;9.470;2022-08-03T07:33:24;30.50;53.70
2441;DHT22;1231;53.988;9.470;2022-08-03T07:35:55;30.10;54.40
2441;DHT22;1231;53.988;9.470;2022-08-03T07:38:26;29.80;55.20
2441;DHT22;1231;53.988;9.470;2022-08-03T07:40:57;29.50;55.80
2441;DHT22;1231;53.988;9.470;2022-08-03T07:43:27;29.30;56.60
2441;DHT22;1231;53.988;9.470;2022-08-03T07:45:58;29.20;57.20
2441;DHT22;1231;53.988;9.470;2022-08-03T07:48:29;29.20;57.70
2441;DHT22;1231;53.988;9.470;2022-08-03T07:50:59;29.10;58.00
2441;DHT22;1231;53.988;9.470;2022-08-03T07:53:30;29.00;58.00
2441;DHT22;1231;53.988;9.470;2022-08-03T07:56:00;28.90;57.90
2441;DHT22;1231;53.988;9.470;2022-08-03T07:58:31;28.80;58.30
2441;DHT22;1231;53.988;9.470;2022-08-03T08:01:02;28.70;58.40
2441;DHT22;1231;53.988;9.470;2022-08-03T08:03:33;28.70;58.70
2441;DHT22;1231;53.988;9.470;2022-08-03T08:06:03;28.70;58.70
2441;DHT22;1231;53.988;9.470;2022-08-03T08:08:34;28.60;58.60
2441;DHT22;1231;53.988;9.470;2022-08-03T08:11:05;28.60;58.90
2441;DHT22;1231;53.988;9.470;2022-08-03T08:13:36;28.70;59.20
2441;DHT22;1231;53.988;9.470;2022-08-03T08:16:09;28.70;59.10
2441;DHT22;1231;53.988;9.470;2022-08-03T08:18:40;28.70;59.20
2441;DHT22;1231;53.988;9.470;2022-08-03T08:21:10;28.70;59.10
2441;DHT22;1231;53.988;9.470;2022-08-03T08:23:41;28.70;59.50
2441;DHT22;1231;53.988;9.470;2022-08-03T08:26:12;28.80;59.10
2441;DHT22;1231;53.988;9.470;2022-08-03T08:28:43;28.80;59.40
2441;DHT22;1231;53.988;9.470;2022-08-03T08:31:13;28.80;59.80
2441;DHT22;1231;53.988;9.470;2022-08-03T08:33:44;28.80;59.40
2441;DHT22;1231;53.988;9.470;2022-08-03T08:36:15;28.90;59.30
2441;DHT22;1231;53.988;9.470;2022-08-03T08:38:45;28.90;59.30
2441;DHT22;1231;53.988;9.470;2022-08-03T08:41:16;28.90;59.60
2441;DHT22;1231;53.988;9.470;2022-08-03T08:43:47;28.90;59.50
2441;DHT22;1231;53.988;9.470;2022-08-03T08:46:19;28.90;59.30
2441;DHT22;1231;53.988;9.470;2022-08-03T08:48:51;28.90;59.00
2441;DHT22;1231;53.988;9.470;2022-08-03T08:51:27;29.00;59.40
2441;DHT22;1231;53.988;9.470;2022-08-03T08:54:01;29.10;59.40
2441;DHT22;1231;53.988;9.470;2022-08-03T08:56:35;29.20;59.70
2441;DHT22;1231;53.988;9.470;2022-08-03T08:59:07;29.20;59.50
2441;DHT22;1231;53.988;9.470;2022-08-03T09:01:38;29.30;59.00
2441;DHT22;1231;53.988;9.470;2022-08-03T09:04:09;29.30;58.80
2441;DHT22;1231;53.988;9.470;2022-08-03T09:06:40;29.40;59.20
2441;DHT22;1231;53.988;9.470;2022-08-03T09:09:11;29.40;58.70
2441;DHT22;1231;53.988;9.470;2022-08-03T09:11:42;29.50;58.60
2441;DHT22;1231;53.988;9.470;2022-08-03T09:14:13;29.50;58.20
2441;DHT22;1231;53.988;9.470;2022-08-03T09:16:59;29.50;57.80
2441;DHT22;1231;53.988;9.470;2022-08-03T09:19:32;29.60;58.40
2441;DHT22;1231;53.988;9.470;2022-08-03T09:25:05;29.60;58.00
2441;DHT22;1231;53.988;9.470;2022-08-03T09:27:42;29.70;58.40
2441;DHT22;1231;53.988;9.470;2022-08-03T09:30:15;29.80;58.00
2441;DHT22;1231;53.988;9.470;2022-08-03T09:32:46;29.80;57.60
2441;DHT22;1231;53.988;9.470;2022-08-03T09:35:25;29.80;57.40
2441;DHT22;1231;53.988;9.470;2022-08-03T09:38:10;29.90;57.70
2441;DHT22;1231;53.988;9.470;2022-08-03T09:40:43;30.00;57.60
2441;DHT22;1231;53.988;9.470;2022-08-03T09:43:14;30.00;57.60
2441;DHT22;1231;53.988;9.470;2022-08-03T09:45:44;30.10;57.60
2441;DHT22;1231;53.988;9.470;2022-08-03T09:48:25;30.20;57.70
2441;DHT22;1231;53.988;9.470;2022-08-03T09:51:00;30.30;57.20
2441;DHT22;1231;53.988;9.470;2022-08-03T09:53:42;30.30;56.80
2441;DHT22;1231;53.988;9.470;2022-08-03T09:56:13;30.30;56.60
2441;DHT22;1231;53.988;9.470;2022-08-03T09:58:46;30.30;56.70
2441;DHT22;1231;53.988;9.470;2022-08-03T10:01:16;30.30;55.90
2441;DHT22;1231;53.988;9.470;2022-08-03T10:03:57;30.40;56.10
2441;DHT22;1231;53.988;9.470;2022-08-03T10:06:28;30.40;56.40
2441;DHT22;1231;53.988;9.470;2022-08-03T10:09:13;30.40;56.50
2441;DHT22;1231;53.988;9.470;2022-08-03T10:11:44;30.50;56.30
2441;DHT22;1231;53.988;9.470;2022-08-03T10:14:16;30.50;56.00
2441;DHT22;1231;53.988;9.470;2022-08-03T10:16:49;30.60;55.80
2441;DHT22;1231;53.988;9.470;2022-08-03T10:19:20;30.60;55.80
2441;DHT22;1231;53.988;9.470;2022-08-03T10:22:02;30.70;55.10
2441;DHT22;1231;53.988;9.470;2022-08-03T10:24:34;30.80;55.30
2441;DHT22;1231;53.988;9.470;2022-08-03T10:27:10;30.90;56.10
2441;DHT22;1231;53.988;9.470;2022-08-03T10:29:47;30.90;55.60
2441;DHT22;1231;53.988;9.470;2022-08-03T10:32:39;30.90;56.00
2441;DHT22;1231;53.988;9.470;2022-08-03T10:35:13;30.90;55.40
2441;DHT22;1231;53.988;9.470;2022-08-03T10:37:51;31.00;55.40
2441;DHT22;1231;53.988;9.470;2022-08-03T10:40:22;31.00;55.50
2441;DHT22;1231;53.988;9.470;2022-08-03T10:42:55;31.00;55.40
2441;DHT22;1231;53.988;9.470;2022-08-03T10:45:29;31.10;55.70
2441;DHT22;1231;53.988;9.470;2022-08-03T10:48:03;31.30;55.60
2441;DHT22;1231;53.988;9.470;2022-08-03T10:50:35;31.30;54.90
2441;DHT22;1231;53.988;9.470;2022-08-03T10:53:06;31.40;54.80
2441;DHT22;1231;53.988;9.470;2022-08-03T10:55:42;31.40;54.00
2441;DHT22;1231;53.988;9.470;2022-08-03T11:01:10;31.40;53.70
2441;DHT22;1231;53.988;9.470;2022-08-03T11:06:24;31.40;53.70
2441;DHT22;1231;53.988;9.470;2022-08-03T11:09:15;31.40;53.70
2441;DHT22;1231;53.988;9.470;2022-08-03T11:11:47;31.40;53.70
2441;DHT22;1231;53.988;9.470;2022-08-03T11:14:19;31.40;54.20
2441;DHT22;1231;53.988;9.470;2022-08-03T11:17:06;31.40;54.60
2441;DHT22;1231;53.988;9.470;2022-08-03T11:19:45;31.50;54.50
2441;DHT22;1231;53.988;9.470;2022-08-03T11:22:17;31.60;54.10
2441;DHT22;1231;53.988;9.470;2022-08-03T11:35:15;31.50;54.00
2441;DHT22;1231;53.988;9.470;2022-08-03T11:40:41;31.50;53.80
2441;DHT22;1231;53.988;9.470;2022-08-03T11:46:06;31.60;53.70
2441;DHT22;1231;53.988;9.470;2022-08-03T11:48:45;31.70;53.60
2441;DHT22;1231;53.988;9.470;2022-08-03T11:51:20;31.70;52.40
2441;DHT22;1231;53.988;9.470;2022-08-03T11:56:24;31.80;52.70
2441;DHT22;1231;53.988;9.470;2022-08-03T11:58:56;31.90;50.90
2441;DHT22;1231;53.988;9.470;2022-08-03T12:01:27;31.80;52.20
2441;DHT22;1231;53.988;9.470;2022-08-03T12:04:05;31.90;52.60
2441;DHT22;1231;53.988;9.470;2022-08-03T12:06:35;31.90;52.30
2441;DHT22;1231;53.988;9.470;2022-08-03T12:09:24;31.90;52.50
2441;DHT22;1231;53.988;9.470;2022-08-03T12:11:55;32.00;52.50
2441;DHT22;1231;53.988;9.470;2022-08-03T12:14:27;32.00;52.50
2441;DHT22;1231;53.988;9.470;2022-08-03T12:16:58;32.00;52.80
2441;DHT22;1231;53.988;9.470;2022-08-03T12:19:43;32.00;52.30
2441;DHT22;1231;53.988;9.470;2022-08-03T12:22:14;32.00;52.60
2441;DHT22;1231;53.988;9.470;2022-08-03T12:24:46;32.00;52.60
2441;DHT22;1231;53.988;9.470;2022-08-03T12:27:24;32.00;52.20
2441;DHT22;1231;53.988;9.470;2022-08-03T12:29:57;32.10;52.30
2441;DHT22;1231;53.988;9.470;2022-08-03T12:32:28;32.00;52.20
2441;DHT22;1231;53.988;9.470;2022-08-03T12:34:59;32.00;52.20
2441;DHT22;1231;53.988;9.470;2022-08-03T12:37:30;32.00;52.30
2441;DHT22;1231;53.988;9.470;2022-08-03T12:40:02;31.90;52.40
2441;DHT22;1231;53.988;9.470;2022-08-03T12:42:37;31.90;53.10
2441;DHT22;1231;53.988;9.470;2022-08-03T12:45:25;31.90;52.70
2441;DHT22;1231;53.988;9.470;2022-08-03T12:47:58;32.00;53.00
2441;DHT22;1231;53.988;9.470;2022-08-03T12:50:34;32.00;52.40
2441;DHT22;1231;53.988;9.470;2022-08-03T12:53:07;32.00;52.50
2441;DHT22;1231;53.988;9.470;2022-08-03T12:55:38;31.90;52.40
2441;DHT22;1231;53.988;9.470;2022-08-03T12:58:28;31.90;52.60
2441;DHT22;1231;53.988;9.470;2022-08-03T13:01:04;31.90;52.80
2441;DHT22;1231;53.988;9.470;2022-08-03T13:03:46;31.90;52.80
2441;DHT22;1231;53.988;9.470;2022-08-03T13:06:23;31.90;52.60
2441;DHT22;1231;53.988;9.470;2022-08-03T13:09:06;31.90;52.80
2441;DHT22;1231;53.988;9.470;2022-08-03T13:11:37;32.00;52.90
2441;DHT22;1231;53.988;9.470;2022-08-03T13:14:07;32.00;53.00
2441;DHT22;1231;53.988;9.470;2022-08-03T13:16:38;32.00;53.10
2441;DHT22;1231;53.988;9.470;2022-08-03T13:19:09;32.10;53.00
2441;DHT22;1231;53.988;9.470;2022-08-03T13:21:40;32.10;52.40
2441;DHT22;1231;53.988;9.470;2022-08-03T13:24:11;32.10;52.30
2441;DHT22;1231;53.988;9.470;2022-08-03T13:26:42;32.00;52.40
2441;DHT22;1231;53.988;9.470;2022-08-03T13:29:12;32.00;52.20
2441;DHT22;1231;53.988;9.470;2022-08-03T13:31:43;32.10;52.50
2441;DHT22;1231;53.988;9.470;2022-08-03T13:34:13;32.10;52.50
2441;DHT22;1231;53.988;9.470;2022-08-03T13:36:44;32.20;52.60
2441;DHT22;1231;53.988;9.470;2022-08-03T13:39:14;32.20;52.40
2441;DHT22;1231;53.988;9.470;2022-08-03T13:41:45;32.30;52.20
2441;DHT22;1231;53.988;9.470;2022-08-03T13:44:16;32.30;52.30
2441;DHT22;1231;53.988;9.470;2022-08-03T13:46:48;32.30;52.00
2441;DHT22;1231;53.988;9.470;2022-08-03T13:49:18;32.40;52.40
2441;DHT22;1231;53.988;9.470;2022-08-03T13:51:49;32.40;51.30
2441;DHT22;1231;53.988;9.470;2022-08-03T13:54:20;32.40;51.40
2441;DHT22;1231;53.988;9.470;2022-08-03T13:56:50;32.40;51.60
2441;DHT22;1231;53.988;9.470;2022-08-03T13:59:24;32.50;52.00
2441;DHT22;1231;53.988;9.470;2022-08-03T14:01:55;32.60;51.10
2441;DHT22;1231;53.988;9.470;2022-08-03T14:04:26;32.60;50.90
2441;DHT22;1231;53.988;9.470;2022-08-03T14:06:56;32.70;51.10
2441;DHT22;1231;53.988;9.470;2022-08-03T14:09:27;32.70;50.80
2441;DHT22;1231;53.988;9.470;2022-08-03T14:11:59;32.70;50.70
2441;DHT22;1231;53.988;9.470;2022-08-03T14:14:29;32.60;50.40
2441;DHT22;1231;53.988;9.470;2022-08-03T14:17:00;32.60;50.50
2441;DHT22;1231;53.988;9.470;2022-08-03T14:19:31;32.70;50.80
2441;DHT22;1231;53.988;9.470;2022-08-03T14:22:02;32.70;50.70
2441;DHT22;1231;53.988;9.470;2022-08-03T14:24:32;32.70;50.80
2441;DHT22;1231;53.988;9.470;2022-08-03T14:27:03;32.70;50.50
2441;DHT22;1231;53.988;9.470;2022-08-03T14:29:33;32.70;50.90
2441;DHT22;1231;53.988;9.470;2022-08-03T14:32:04;32.60;51.20
2441;DHT22;1231;53.988;9.470;2022-08-03T14:34:35;32.40;51.30
2441;DHT22;1231;53.988;9.470;2022-08-03T14:37:06;32.40;51.00
2441;DHT22;1231;53.988;9.470;2022-08-03T14:39:36;32.40;50.90
2441;DHT22;1231;53.988;9.470;2022-08-03T14:42:07;32.50;51.30
2441;DHT22;1231;53.988;9.470;2022-08-03T14:44:38;32.50;51.00
2441;DHT22;1231;53.988;9.470;2022-08-03T14:47:09;32.40;51.10
2441;DHT22;1231;53.988;9.470;2022-08-03T14:49:40;32.40;51.40
2441;DHT22;1231;53.988;9.470;2022-08-03T14:52:11;32.40;51.90
2441;DHT22;1231;53.988;9.470;2022-08-03T14:54:42;32.40;51.90
2441;DHT22;1231;53.988;9.470;2022-08-03T14:57:12;32.40;51.80
2441;DHT22;1231;53.988;9.470;2022-08-03T14:59:43;32.40;52.10
2441;DHT22;1231;53.988;9.470;2022-08-03T15:02:13;32.30;52.00
2441;DHT22;1231;53.988;9.470;2022-08-03T15:04:44;32.20;52.20
2441;DHT22;1231;53.988;9.470;2022-08-03T15:07:15;32.10;52.50
2441;DHT22;1231;53.988;9.470;2022-08-03T15:09:45;32.00;52.30
2441;DHT22;1231;53.988;9.470;2022-08-03T15:12:16;32.00;52.60
2441;DHT22;1231;53.988;9.470;2022-08-03T15:14:46;32.00;52.90
2441;DHT22;1231;53.988;9.470;2022-08-03T15:17:17;32.00;53.00
2441;DHT22;1231;53.988;9.470;2022-08-03T15:19:48;32.00;52.80
2441;DHT22;1231;53.988;9.470;2022-08-03T15:22:18;32.10;52.40
2441;DHT22;1231;53.988;9.470;2022-08-03T15:24:49;32.10;52.40
2441;DHT22;1231;53.988;9.470;2022-08-03T15:27:20;32.10;52.10
2441;DHT22;1231;53.988;9.470;2022-08-03T15:29:51;32.10;52.50
2441;DHT22;1231;53.988;9.470;2022-08-03T15:32:22;32.00;52.70
2441;DHT22;1231;53.988;9.470;2022-08-03T15:34:52;32.00;53.10
2441;DHT22;1231;53.988;9.470;2022-08-03T15:37:24;31.90;53.00
2441;DHT22;1231;53.988;9.470;2022-08-03T15:39:55;31.90;53.30
2441;DHT22;1231;53.988;9.470;2022-08-03T15:42:27;31.90;53.30
2441;DHT22;1231;53.988;9.470;2022-08-03T15:44:58;31.90;53.20
2441;DHT22;1231;53.988;9.470;2022-08-03T15:47:29;31.80;53.20
2441;DHT22;1231;53.988;9.470;2022-08-03T15:49:59;31.80;53.30
2441;DHT22;1231;53.988;9.470;2022-08-03T15:52:30;31.80;53.60
2441;DHT22;1231;53.988;9.470;2022-08-03T15:55:00;31.80;53.90
2441;DHT22;1231;53.988;9.470;2022-08-03T15:57:31;31.80;53.90
2441;DHT22;1231;53.988;9.470;2022-08-03T16:00:05;31.80;54.00
2441;DHT22;1231;53.988;9.470;2022-08-03T16:02:37;31.80;54.00
2441;DHT22;1231;53.988;9.470;2022-08-03T16:05:08;31.70;54.20
2441;DHT22;1231;53.988;9.470;2022-08-03T16:07:39;31.60;54.30
2441;DHT22;1231;53.988;9.470;2022-08-03T16:10:15;31.50;54.60
2441;DHT22;1231;53.988;9.470;2022-08-03T16:12:46;31.50;54.70
2441;DHT22;1231;53.988;9.470;2022-08-03T16:15:17;31.40;55.20
2441;DHT22;1231;53.988;9.470;2022-08-03T16:17:48;31.40;55.60
2441;DHT22;1231;53.988;9.470;2022-08-03T16:20:18;31.30;55.60
2441;DHT22;1231;53.988;9.470;2022-08-03T16:22:49;31.20;55.90
2441;DHT22;1231;53.988;9.470;2022-08-03T16:25:20;31.10;56.00
2441;DHT22;1231;53.988;9.470;2022-08-03T16:27:50;31.00;55.90
2441;DHT22;1231;53.988;9.470;2022-08-03T16:30:21;31.00;56.20
2441;DHT22;1231;53.988;9.470;2022-08-03T16:32:52;30.90;56.40
2441;DHT22;1231;53.988;9.470;2022-08-03T16:35:22;30.90;56.60
2441;DHT22;1231;53.988;9.470;2022-08-03T16:37:53;30.90;56.80
2441;DHT22;1231;53.988;9.470;2022-08-03T16:40:24;30.90;56.90
2441;DHT22;1231;53.988;9.470;2022-08-03T16:42:55;30.90;56.90
2441;DHT22;1231;53.988;9.470;2022-08-03T16:45:26;30.90;57.20
2441;DHT22;1231;53.988;9.470;2022-08-03T16:47:56;30.90;57.50
2441;DHT22;1231;53.988;9.470;2022-08-03T16:50:27;30.90;57.40
2441;DHT22;1231;53.988;9.470;2022-08-03T16:52:57;30.90;57.40
2441;DHT22;1231;53.988;9.470;2022-08-03T16:55:28;30.90;57.50
2441;DHT22;1231;53.988;9.470;2022-08-03T16:57:59;30.90;57.60
2441;DHT22;1231;53.988;9.470;2022-08-03T17:00:32;30.80;57.80
2441;DHT22;1231;53.988;9.470;2022-08-03T17:03:03;30.80;57.80
2441;DHT22;1231;53.988;9.470;2022-08-03T17:05:34;30.80;57.20
2441;DHT22;1231;53.988;9.470;2022-08-03T17:08:06;30.80;57.40
2441;DHT22;1231;53.988;9.470;2022-08-03T17:10:36;30.80;57.40
2441;DHT22;1231;53.988;9.470;2022-08-03T17:13:08;30.70;57.50
2441;DHT22;1231;53.988;9.470;2022-08-03T17:15:40;30.60;57.60
2441;DHT22;1231;53.988;9.470;2022-08-03T17:18:15;30.50;57.80